Time;durP1;ratioP1;P1;durP2;ratioP2;P2;SDS_P1;SDS_P2;PMS_P1;PMS_P2;Temp;Humidity;BMP_temperature;BMP_pressure;BME280_temperature;BME280_humidity;BME280_pressure;Samples;Min_cycle;Max_cycle;Signal;HPM_P1;HPM_P2
2022/07/19 00:00:15;;;;;;;6.03;3.85;;;;;;;16.24;88.64;101743.25;1046504;28;20055;-83
2022/07/19 00:00:47;;;;;;;9.13;4.43;;;;;;;16.22;89.02;101748.03;1042251;28;20048;-83
2022/07/19 00:01:18;;;;;;;4.00;3.60;;;;;;;16.29;89.14;101745.25;1039303;28;20045;-83
2022/07/19 00:01:50;;;;;;;4.05;3.65;;;;;;;16.32;88.77;101742.91;1040789;28;20554;-83
2022/07/19 00:02:22;;;;;;;4.82;3.88;;;;;;;16.34;88.96;101740.81;1044695;28;20048;-83
2022/07/19 00:02:54;;;;;;;5.97;4.30;;;;;;;16.36;89.40;101749.44;1048081;28;20042;-83
2022/07/19 00:03:26;;;;;;;8.25;4.03;;;;;;;16.31;88.95;101740.44;1048742;28;20444;-83
2022/07/19 00:03:57;;;;;;;5.97;4.63;;;;;;;16.15;89.47;101747.31;1052287;28;20443;-82
2022/07/19 00:04:29;;;;;;;9.50;4.53;;;;;;;16.07;89.31;101744.97;1052069;28;20489;-83
2022/07/19 00:05:01;;;;;;;5.40;4.18;;;;;;;16.14;89.24;101748.34;1048576;28;20040;-83
2022/07/19 00:05:33;;;;;;;9.90;4.30;;;;;;;16.08;89.28;101746.59;1052328;28;20047;-83
2022/07/19 00:06:04;;;;;;;5.70;4.22;;;;;;;15.87;89.10;101752.50;1048141;28;20440;-83
2022/07/19 00:06:36;;;;;;;4.57;3.95;;;;;;;16.06;89.21;101743.31;1048502;28;20048;-83
2022/07/19 00:07:08;;;;;;;4.30;3.88;;;;;;;16.10;89.23;101747.19;1052367;28;20040;-83
2022/07/19 00:07:40;;;;;;;5.00;3.42;;;;;;;16.15;89.15;101749.19;1052257;28;20070;-83
2022/07/19 00:08:12;;;;;;;5.20;3.15;;;;;;;16.25;88.92;101744.88;1051943;28;20043;-83
2022/07/19 00:08:43;;;;;;;8.20;3.75;;;;;;;16.31;88.93;101746.66;1043247;28;20056;-83
2022/07/19 00:09:15;;;;;;;4.88;4.10;;;;;;;16.36;88.93;101744.06;1043755;28;20041;-83
2022/07/19 00:09:47;;;;;;;6.47;3.72;;;;;;;16.38;88.79;101747.34;1040267;28;20110;-83
2022/07/19 00:10:19;;;;;;;6.25;3.75;;;;;;;16.38;88.62;101747.34;1044473;28;20041;-82
2022/07/19 00:10:51;;;;;;;6.45;3.33;;;;;;;16.42;88.56;101747.69;1044702;28;20083;-83
2022/07/19 00:11:27;;;;;;;3.83;3.50;;;;;;;16.44;88.33;101744.81;1045057;28;20045;-83
2022/07/19 00:11:58;;;;;;;5.32;3.75;;;;;;;16.41;88.95;101740.69;1043678;28;20053;-82
2022/07/19 00:12:30;;;;;;;4.72;3.78;;;;;;;16.33;88.66;101747.22;1044096;28;20051;-83
2022/07/19 00:13:02;;;;;;;7.80;3.60;;;;;;;16.33;88.09;101744.53;1044807;28;20049;-83
2022/07/19 00:13:34;;;;;;;5.78;4.15;;;;;;;16.23;88.31;101747.00;1044208;28;20123;-83
2022/07/19 00:14:06;;;;;;;4.35;3.95;;;;;;;16.20;88.71;101743.94;1044833;28;20052;-83
2022/07/19 00:14:38;;;;;;;4.25;3.90;;;;;;;16.17;89.23;101745.22;1039521;28;20390;-83
2022/07/19 00:15:13;;;;;;;4.82;3.63;;;;;;;16.13;89.35;101748.59;1036334;28;20061;-83
2022/07/19 00:15:44;;;;;;;9.77;4.35;;;;;;;16.11;89.90;101740.75;1034373;28;20057;-83
2022/07/19 00:16:17;;;;;;;3.72;3.42;;;;;;;16.04;90.33;101745.44;1033616;28;20100;-83
2022/07/19 00:16:49;;;;;;;9.57;4.13;;;;;;;16.01;90.25;101752.09;1036597;28;20046;-83
2022/07/19 00:17:20;;;;;;;5.28;4.05;;;;;;;16.00;90.34;101749.63;1036100;28;20054;-83
2022/07/19 00:17:52;;;;;;;8.40;4.20;;;;;;;15.96;91.15;101748.44;1040325;28;20049;-83
2022/07/19 00:18:24;;;;;;;8.38;4.03;;;;;;;15.95;90.72;101752.19;1044885;28;20052;-83
2022/07/19 00:18:55;;;;;;;6.10;4.03;;;;;;;15.89;91.33;101747.75;1044405;28;20546;-83
2022/07/19 00:19:27;;;;;;;11.75;4.40;;;;;;;15.77;91.10;101745.81;1048139;28;20406;-83
2022/07/19 00:19:58;;;;;;;7.35;4.82;;;;;;;15.72;91.26;101747.56;1043958;28;20033;-83
2022/07/19 00:20:30;;;;;;;8.50;3.90;;;;;;;15.69;91.65;101748.84;1044558;28;20098;-83
2022/07/19 00:21:02;;;;;;;6.82;3.65;;;;;;;15.71;91.27;101746.72;1052010;28;20543;-83
2022/07/19 00:21:33;;;;;;;4.85;3.60;;;;;;;15.81;91.35;101745.34;1052267;28;20110;-83
2022/07/19 00:22:06;;;;;;;8.68;5.00;;;;;;;15.86;91.31;101740.94;1052161;28;20036;-83
2022/07/19 00:22:37;;;;;;;6.00;3.97;;;;;;;15.94;90.82;101740.63;1047914;28;20359;-83
2022/07/19 00:23:09;;;;;;;5.40;4.05;;;;;;;16.00;91.21;101742.38;1048026;28;20040;-83
2022/07/19 00:23:40;;;;;;;8.00;4.32;;;;;;;16.01;91.18;101740.50;1047824;28;20036;-83
2022/07/19 00:24:12;;;;;;;14.50;4.38;;;;;;;15.89;90.70;101742.38;1052427;28;20521;-83
2022/07/19 00:24:44;;;;;;;12.60;3.78;;;;;;;15.78;90.87;101733.19;1048033;28;20055;-83
2022/07/19 00:25:15;;;;;;;6.07;3.28;;;;;;;15.77;90.32;101745.81;1043960;28;20041;-83
2022/07/19 00:25:47;;;;;;;5.38;4.13;;;;;;;15.76;91.14;101738.81;1044171;28;20442;-83
2022/07/19 00:26:19;;;;;;;5.82;4.57;;;;;;;15.70;91.70;101731.66;1036181;28;20038;-83
2022/07/19 00:26:50;;;;;;;7.32;4.68;;;;;;;15.76;91.26;101744.19;1039418;28;20097;-83
2022/07/19 00:27:22;;;;;;;4.53;4.13;;;;;;;15.65;91.89;101736.91;1035785;28;20038;-83
2022/07/19 00:27:54;;;;;;;7.82;3.63;;;;;;;15.67;91.81;101739.38;1039906;28;20041;-83
2022/07/19 00:28:25;;;;;;;6.45;4.40;;;;;;;15.63;92.61;101736.31;1043698;28;20056;-83
2022/07/19 00:28:58;;;;;;;7.47;3.60;;;;;;;15.55;92.26;101736.59;1044160;28;20049;-83
2022/07/19 00:29:30;;;;;;;6.05;4.45;;;;;;;15.47;92.39;101739.59;1035055;28;20046;-83
2022/07/19 00:30:04;;;;;;;6.47;3.67;;;;;;;15.50;93.02;101744.50;1035824;28;20492;-83
2022/07/19 00:30:35;;;;;;;7.28;4.07;;;;;;;15.63;93.25;101738.19;1032889;28;20042;-83
2022/07/19 00:31:07;;;;;;;5.05;3.85;;;;;;;15.62;92.76;101748.09;1037948;28;20038;-83
2022/07/19 00:31:39;;;;;;;4.25;3.70;;;;;;;15.63;92.89;101739.00;1040358;28;20089;-83
2022/07/19 00:32:11;;;;;;;6.07;3.50;;;;;;;15.62;92.54;101734.69;1044590;28;20045;-83
2022/07/19 00:32:42;;;;;;;5.07;3.47;;;;;;;15.61;92.76;101743.78;1041572;28;20056;-83
2022/07/19 00:33:14;;;;;;;8.23;4.18;;;;;;;15.59;92.34;101748.53;1043964;28;20068;-83
2022/07/19 00:33:46;;;;;;;5.00;4.18;;;;;;;15.57;92.51;101739.84;1044198;28;20040;-83
2022/07/19 00:34:17;;;;;;;5.07;3.47;;;;;;;15.52;93.06;101739.72;1037609;28;20046;-83
2022/07/19 00:34:49;;;;;;;5.75;4.30;;;;;;;15.45;92.35;101747.88;1035826;28;20042;-83
2022/07/19 00:35:21;;;;;;;6.53;3.75;;;;;;;15.44;93.20;101745.41;1036151;28;20069;-82
2022/07/19 00:35:52;;;;;;;9.73;4.22;;;;;;;15.43;92.85;101738.41;1031530;28;20051;-83
2022/07/19 00:36:24;;;;;;;4.95;4.15;;;;;;;15.44;92.34;101737.34;1040552;28;20041;-83
2022/07/19 00:36:56;;;;;;;4.35;3.45;;;;;;;15.42;93.48;101742.13;1044612;28;20067;-83
2022/07/19 00:37:27;;;;;;;8.48;3.72;;;;;;;15.54;93.13;101739.50;1044564;28;20414;-83
2022/07/19 00:38:04;;;;;;;8.90;4.63;;;;;;;15.60;92.39;101739.44;1043620;28;20041;-82
2022/07/19 00:38:36;;;;;;;12.00;5.18;;;;;;;15.64;92.27;101739.81;1031915;28;20049;-83
2022/07/19 00:39:08;;;;;;;26.80;4.53;;;;;;;15.66;91.77;101738.53;1037176;28;20045;-83
2022/07/19 00:39:39;;;;;;;50.45;7.97;;;;;;;15.73;92.14;101736.56;1039590;28;20262;-82
2022/07/19 00:40:12;;;;;;;88.68;10.65;;;;;;;15.76;91.41;101738.81;1043963;28;20394;-83
2022/07/19 00:40:44;;;;;;;121.90;12.40;;;;;;;15.68;91.61;101731.06;1052489;28;20040;-83
2022/07/19 00:41:16;;;;;;;26.63;6.60;;;;;;;15.65;91.98;101736.91;1047697;28;20041;-82
2022/07/19 00:41:47;;;;;;;33.17;5.82;;;;;;;15.61;91.38;101730.34;1043691;28;20044;-83
2022/07/19 00:42:19;;;;;;;10.02;4.78;;;;;;;15.57;92.20;101734.50;1036392;28;20041;-83
2022/07/19 00:42:51;;;;;;;18.88;4.65;;;;;;;15.56;92.19;101732.84;1035987;28;20041;-83
2022/07/19 00:43:23;;;;;;;17.55;5.18;;;;;;;15.50;92.85;101733.75;1036058;28;20202;-83
2022/07/19 00:43:56;;;;;;;6.32;4.15;;;;;;;15.38;93.04;101741.78;1036435;28;20038;-83
2022/07/19 00:44:28;;;;;;;6.28;3.80;;;;;;;15.32;92.74;101734.59;1040095;28;20685;-83
2022/07/19 00:44:59;;;;;;;11.00;4.53;;;;;;;15.19;93.57;101739.31;1044494;28;20056;-83
2022/07/19 00:45:31;;;;;;;10.38;4.68;;;;;;;15.19;94.26;101742.00;1047243;28;20040;-83
2022/07/19 00:46:03;;;;;;;13.48;4.57;;;;;;;15.32;94.26;101736.47;1048043;28;20548;-83
2022/07/19 00:46:34;;;;;;;16.63;4.82;;;;;;;15.36;93.53;101737.69;1047773;28;20044;-83
2022/07/19 00:47:07;;;;;;;14.13;4.03;;;;;;;15.38;93.83;101749.00;1047834;28;20426;-83
2022/07/19 00:47:38;;;;;;;10.20;4.70;;;;;;;15.46;93.72;101746.00;1048524;28;20047;-83
2022/07/19 00:48:10;;;;;;;15.50;5.35;;;;;;;15.52;92.72;101742.41;1047941;28;20118;-83
2022/07/19 00:48:42;;;;;;;13.43;3.92;;;;;;;15.57;92.43;101734.50;1047864;28;20040;-83
2022/07/19 00:49:13;;;;;;;5.85;4.32;;;;;;;15.62;91.81;101734.69;1047949;28;20040;-83
2022/07/19 00:49:45;;;;;;;13.15;5.65;;;;;;;15.61;92.02;101741.09;1048506;28;20054;-83
2022/07/19 00:50:18;;;;;;;18.88;4.55;;;;;;;15.64;92.22;101740.66;1047598;28;20040;-83
2022/07/19 00:50:50;;;;;;;6.93;4.05;;;;;;;15.60;91.99;101741.28;1044701;28;20037;-83
2022/07/19 00:51:21;;;;;;;13.45;4.63;;;;;;;15.54;92.04;101737.63;1043567;28;20403;-83
2022/07/19 00:51:55;;;;;;;16.08;3.92;;;;;;;15.51;92.15;101738.09;1040477;28;20120;-83
2022/07/19 00:52:28;;;;;;;7.15;4.03;;;;;;;15.60;92.16;101744.81;1040881;28;20112;-83
2022/07/19 00:53:02;;;;;;;4.80;3.72;;;;;;;15.66;91.87;101738.53;1044885;28;20408;-82
2022/07/19 00:53:36;;;;;;;11.75;4.10;;;;;;;15.55;91.24;101736.59;1048722;28;20469;-83
2022/07/19 00:54:11;;;;;;;13.82;4.32;;;;;;;15.53;91.05;101735.16;1049131;28;20498;-83
2022/07/19 00:54:43;;;;;;;8.00;4.40;;;;;;;15.49;91.35;101742.03;1047896;28;20040;-83
2022/07/19 00:55:17;;;;;;;7.88;4.45;;;;;;;15.36;92.75;101737.69;1044017;28;20040;-83
2022/07/19 00:55:50;;;;;;;7.72;5.00;;;;;;;15.39;93.28;101742.59;1035426;28;20400;-83
2022/07/19 00:56:22;;;;;;;16.65;4.95;;;;;;;15.33;93.51;101736.25;1037583;28;20069;-83
2022/07/19 00:56:54;;;;;;;8.50;4.30;;;;;;;15.32;93.76;101739.16;1040773;28;20149;-83
2022/07/19 00:57:27;;;;;;;4.30;3.90;;;;;;;15.20;94.06;101732.91;1044656;28;20041;-82
2022/07/19 00:58:01;;;;;;;10.25;4.53;;;;;;;15.04;94.24;101745.06;1048551;28;20067;-83
2022/07/19 00:58:34;;;;;;;6.13;4.32;;;;;;;15.11;94.49;101743.13;1048738;28;20529;-83
2022/07/19 00:59:07;;;;;;;4.70;4.30;;;;;;;15.12;94.19;101737.53;1052069;28;20103;-83
2022/07/19 00:59:39;;;;;;;6.53;4.25;;;;;;;15.14;94.35;101735.44;1041621;28;20049;-83
2022/07/19 01:00:12;;;;;;;10.43;4.22;;;;;;;15.16;93.72;101737.91;1043450;28;20430;-83
2022/07/19 01:00:44;;;;;;;5.88;4.05;;;;;;;15.17;94.46;101736.03;1042330;28;20126;-83
2022/07/19 01:01:15;;;;;;;6.22;4.82;;;;;;;15.17;94.23;101728.81;1044584;28;20045;-83
2022/07/19 01:01:47;;;;;;;8.27;4.53;;;;;;;15.15;94.63;101737.09;1048479;28;20045;-83
2022/07/19 01:02:19;;;;;;;10.73;4.85;;;;;;;15.17;94.99;101741.41;1044533;28;21384;-83
2022/07/19 01:02:51;;;;;;;7.90;4.03;;;;;;;15.12;95.20;101737.53;1048169;28;20044;-83
2022/07/19 01:03:24;;;;;;;4.40;4.00;;;;;;;15.12;95.50;101732.19;1047824;28;20419;-83
2022/07/19 01:03:56;;;;;;;7.05;4.03;;;;;;;15.11;95.15;101737.78;1048446;28;20063;-83
2022/07/19 01:04:28;;;;;;;4.82;3.80;;;;;;;15.12;95.24;101732.19;1044043;28;20044;-84
2022/07/19 01:05:00;;;;;;;5.85;4.57;;;;;;;15.10;95.64;101736.94;1043984;28;20527;-83
2022/07/19 01:05:32;;;;;;;4.40;3.97;;;;;;;15.05;94.96;101734.09;1043418;28;20052;-83
2022/07/19 01:06:04;;;;;;;4.80;4.13;;;;;;;14.99;95.25;101736.84;1045205;28;20047;-83
2022/07/19 01:06:40;;;;;;;6.72;4.35;;;;;;;14.92;95.52;101741.47;1052200;28;20058;-83
2022/07/19 01:07:12;;;;;;;24.55;6.40;;;;;;;14.85;95.63;101730.84;1048451;28;20099;-83
2022/07/19 01:07:45;;;;;;;27.77;6.18;;;;;;;14.83;96.48;101735.59;1043504;28;20041;-83
2022/07/19 01:08:16;;;;;;;16.77;5.05;;;;;;;14.83;96.47;101733.75;1035438;28;20046;-83
2022/07/19 01:08:48;;;;;;;40.30;7.30;;;;;;;14.88;96.46;101730.38;1035960;28;20224;-83
2022/07/19 01:09:20;;;;;;;62.00;10.90;;;;;;;14.95;96.94;101728.44;1040143;28;20049;-83
2022/07/19 01:09:52;;;;;;;66.85;12.27;;;;;;;14.95;96.97;101727.63;1044312;28;20044;-83
2022/07/19 01:10:24;;;;;;;39.38;9.60;;;;;;;14.96;97.37;101729.25;1044452;28;20037;-83
2022/07/19 01:10:56;;;;;;;14.20;6.38;;;;;;;14.97;97.41;101729.03;1043707;28;20048;-83
2022/07/19 01:11:28;;;;;;;10.63;5.57;;;;;;;15.09;97.38;101732.63;1040265;28;20120;-83
2022/07/19 01:11:59;;;;;;;14.07;6.07;;;;;;;15.15;97.27;101730.91;1040280;28;20123;-83
2022/07/19 01:12:32;;;;;;;7.90;5.05;;;;;;;15.15;96.86;101723.69;1044052;28;20037;-83
2022/07/19 01:13:04;;;;;;;19.67;5.80;;;;;;;15.19;96.74;101726.72;1043286;28;21052;-83
2022/07/19 01:13:35;;;;;;;35.72;7.57;;;;;;;15.22;97.08;101725.44;1044539;28;20056;-83
2022/07/19 01:14:07;;;;;;;132.00;19.58;;;;;;;15.18;96.42;101724.25;1043440;28;20051;-83
2022/07/19 01:14:40;;;;;;;225.38;25.63;;;;;;;15.15;95.86;101726.34;1039982;28;20049;-83
2022/07/19 01:15:23;;;;;;;204.65;25.95;;;;;;;15.09;96.22;101727.25;1039617;28;20045;-83
2022/07/19 01:15:55;;;;;;;229.68;24.77;;;;;;;15.10;95.93;101723.53;1039226;28;20045;-83
2022/07/19 01:16:26;;;;;;;219.10;26.23;;;;;;;15.12;96.42;101726.81;1045850;28;20048;-83
2022/07/19 01:17:02;;;;;;;171.40;19.40;;;;;;;15.14;95.84;101730.09;1045734;28;20459;-83
2022/07/19 01:17:33;;;;;;;170.25;18.40;;;;;;;15.15;96.49;101731.72;1044064;28;20584;-83
2022/07/19 01:18:05;;;;;;;74.30;13.70;;;;;;;15.15;95.78;101736.28;1048044;28;20387;-83
2022/07/19 01:18:36;;;;;;;70.82;12.55;;;;;;;15.09;96.02;101732.63;1043581;28;20055;-83
2022/07/19 01:19:08;;;;;;;77.97;13.10;;;;;;;15.07;95.31;101734.72;1044455;28;20033;-83
2022/07/19 01:19:42;;;;;;;52.10;11.15;;;;;;;15.08;95.82;101725.63;1043895;28;20044;-83
2022/07/19 01:20:13;;;;;;;51.85;8.10;;;;;;;15.06;95.56;101733.06;1038949;28;20057;-83
2022/07/19 01:20:45;;;;;;;33.17;7.35;;;;;;;14.99;96.32;101726.13;1043608;28;20052;-83
2022/07/19 01:21:21;;;;;;;25.17;6.75;;;;;;;14.95;95.92;101731.13;1044305;28;21791;-83
2022/07/19 01:21:53;;;;;;;23.05;5.72;;;;;;;14.94;96.36;101734.03;1040795;28;20042;-83
2022/07/19 01:22:24;;;;;;;21.92;6.65;;;;;;;14.94;96.22;101726.81;1040737;28;20041;-83
2022/07/19 01:22:56;;;;;;;36.72;7.38;;;;;;;14.94;96.88;101725.97;1033077;28;20064;-83
2022/07/19 01:23:28;;;;;;;35.53;8.02;;;;;;;14.89;96.80;101732.03;1036366;28;20492;-83
2022/07/19 01:23:59;;;;;;;26.40;7.50;;;;;;;14.89;97.40;101731.19;1035568;28;20093;-83
2022/07/19 01:24:31;;;;;;;23.00;7.22;;;;;;;14.95;96.83;101725.75;1039842;28;20048;-82
2022/07/19 01:25:04;;;;;;;41.88;8.95;;;;;;;14.94;96.91;101729.47;1044192;28;20076;-83
2022/07/19 01:25:37;;;;;;;44.80;9.10;;;;;;;14.93;96.79;101733.22;1048765;28;20578;-83
2022/07/19 01:26:08;;;;;;;37.20;8.05;;;;;;;14.97;96.75;101736.25;1044125;28;20106;-83
2022/07/19 01:26:40;;;;;;;42.90;7.75;;;;;;;15.03;96.96;101736.19;1043584;28;20048;-83
2022/07/19 01:27:12;;;;;;;18.70;6.95;;;;;;;15.12;96.72;101732.19;1043867;28;20053;-83
2022/07/19 01:27:46;;;;;;;23.85;6.03;;;;;;;15.21;97.03;101737.22;1044338;28;20406;-83
2022/07/19 01:28:17;;;;;;;15.68;5.28;;;;;;;15.26;96.38;101732.00;1051500;28;20424;-83
2022/07/19 01:28:49;;;;;;;8.85;4.88;;;;;;;15.31;96.37;101741.00;1048093;28;20053;-83
2022/07/19 01:29:21;;;;;;;6.53;4.97;;;;;;;15.33;96.37;101738.09;1043488;28;20418;-83
2022/07/19 01:29:52;;;;;;;10.63;4.88;;;;;;;15.36;96.26;101737.69;1044055;28;20051;-83
2022/07/19 01:30:25;;;;;;;5.72;4.45;;;;;;;15.30;96.35;101742.06;1047821;28;20521;-83
2022/07/19 01:30:57;;;;;;;6.03;5.10;;;;;;;15.23;95.70;101735.16;1039196;28;20129;-83
2022/07/19 01:31:28;;;;;;;8.27;4.55;;;;;;;15.13;95.81;101739.19;1046054;28;20041;-83
2022/07/19 01:32:00;;;;;;;6.97;4.75;;;;;;;15.15;95.94;101737.09;1044266;28;20041;-83
2022/07/19 01:32:31;;;;;;;7.03;4.13;;;;;;;15.19;96.13;101733.97;1048492;28;20036;-83
2022/07/19 01:33:03;;;;;;;12.02;4.38;;;;;;;15.17;96.52;101738.72;1047441;28;20135;-83
2022/07/19 01:33:45;;;;;;;8.02;4.20;;;;;;;15.07;96.29;101739.28;1043998;28;20037;-83
2022/07/19 01:34:17;;;;;;;9.13;5.28;;;;;;;15.07;96.06;101734.72;1042158;28;20056;-83
2022/07/19 01:34:48;;;;;;;9.35;4.93;;;;;;;15.07;96.73;101733.91;1041254;28;20526;-83
2022/07/19 01:35:20;;;;;;;17.10;4.85;;;;;;;15.09;96.66;101737.19;1039313;28;20033;-83
2022/07/19 01:35:52;;;;;;;31.35;6.68;;;;;;;15.18;96.04;101737.69;1039854;28;20052;-82
2022/07/19 01:36:24;;;;;;;27.38;7.00;;;;;;;15.26;95.89;101738.19;1044173;28;20529;-83
2022/07/19 01:36:55;;;;;;;33.13;6.97;;;;;;;15.30;95.60;101741.25;1044075;28;20045;-83
2022/07/19 01:37:27;;;;;;;34.33;8.88;;;;;;;15.35;95.27;101736.84;1043432;28;20033;-83
2022/07/19 01:37:58;;;;;;;32.90;7.90;;;;;;;15.39;94.42;101742.59;1047742;28;20083;-83
2022/07/19 01:38:30;;;;;;;18.13;7.13;;;;;;;15.44;94.51;101742.72;1048183;28;20032;-83
2022/07/19 01:39:01;;;;;;;49.90;9.13;;;;;;;15.45;94.18;101741.69;1043885;28;20081;-83
2022/07/19 01:39:33;;;;;;;31.02;7.65;;;;;;;15.45;93.97;101739.00;1043728;28;20040;-83
2022/07/19 01:40:07;;;;;;;25.00;6.75;;;;;;;15.47;93.11;101742.28;1043679;28;20041;-83
2022/07/19 01:40:39;;;;;;;32.20;7.80;;;;;;;15.44;93.06;101740.03;1044339;28;20068;-83
2022/07/19 01:41:10;;;;;;;30.58;7.13;;;;;;;15.48;93.06;101740.41;1043564;28;20051;-83
2022/07/19 01:41:42;;;;;;;31.52;8.25;;;;;;;15.46;92.48;101738.78;1044626;28;20045;-83
2022/07/19 01:42:13;;;;;;;35.75;8.10;;;;;;;15.38;93.49;101746.31;1048173;28;20036;-83
2022/07/19 01:42:46;;;;;;;42.05;7.65;;;;;;;15.34;93.31;101739.75;1052502;28;20093;-83
2022/07/19 01:43:18;;;;;;;25.58;7.90;;;;;;;15.28;92.73;101746.00;1042877;28;20053;-83
2022/07/19 01:43:49;;;;;;;24.08;6.97;;;;;;;15.12;93.29;101745.59;1043260;28;20048;-83
2022/07/19 01:44:21;;;;;;;25.50;6.22;;;;;;;14.98;94.53;101746.78;1035659;28;20053;-83
2022/07/19 01:44:53;;;;;;;34.92;7.28;;;;;;;14.93;94.52;101748.50;1035905;28;20523;-83
2022/07/19 01:45:24;;;;;;;26.80;7.70;;;;;;;14.98;94.21;101746.78;1033827;28;20056;-83
2022/07/19 01:45:56;;;;;;;19.92;5.78;;;;;;;15.01;94.82;101746.31;1038410;28;20097;-83
2022/07/19 01:46:28;;;;;;;24.13;7.35;;;;;;;15.02;95.28;101753.31;1037772;28;20042;-83
2022/07/19 01:47:01;;;;;;;17.08;6.10;;;;;;;15.00;95.65;101750.03;1043582;28;20475;-83
2022/07/19 01:47:33;;;;;;;25.08;6.20;;;;;;;14.96;95.68;101754.22;1042833;28;20787;-83
2022/07/19 01:48:05;;;;;;;21.65;6.43;;;;;;;14.92;96.78;101745.00;1040211;28;20049;-83
2022/07/19 01:48:37;;;;;;;19.92;6.15;;;;;;;14.89;95.95;101748.13;1039140;28;20048;-83
2022/07/19 01:49:08;;;;;;;25.67;5.55;;;;;;;14.87;95.50;101744.84;1040910;28;20037;-83
2022/07/19 01:49:40;;;;;;;14.88;5.93;;;;;;;14.83;96.24;101739.09;1048427;28;20379;-83
2022/07/19 01:50:13;;;;;;;15.82;5.65;;;;;;;14.80;95.65;101741.41;1047775;28;20510;-83
2022/07/19 01:50:45;;;;;;;12.88;5.43;;;;;;;14.77;95.60;101741.81;1051418;28;20173;-83
2022/07/19 01:51:16;;;;;;;8.75;5.38;;;;;;;14.77;96.05;101747.19;1047569;28;20037;-83
2022/07/19 01:51:48;;;;;;;13.90;5.07;;;;;;;14.76;95.98;101737.50;1046995;28;20079;-83
2022/07/19 01:52:20;;;;;;;11.75;5.35;;;;;;;14.72;96.45;101736.31;1047579;28;20048;-83
2022/07/19 01:52:51;;;;;;;10.15;5.13;;;;;;;14.68;96.32;101740.47;1043950;28;20044;-83
2022/07/19 01:53:23;;;;;;;16.17;5.70;;;;;;;14.71;96.34;101737.34;1047812;28;20490;-83
2022/07/19 01:53:54;;;;;;;16.50;6.05;;;;;;;14.73;96.01;101737.94;1051898;28;20048;-83
2022/07/19 01:54:29;;;;;;;9.35;5.25;;;;;;;14.79;96.29;101735.22;1052015;28;20028;-83
2022/07/19 01:55:00;;;;;;;15.65;6.13;;;;;;;14.82;95.73;101736.66;1051586;28;20558;-83
2022/07/19 01:55:32;;;;;;;21.38;6.40;;;;;;;14.77;96.73;101733.78;1047677;28;20037;-83
2022/07/19 01:56:05;;;;;;;17.25;5.50;;;;;;;14.73;96.67;101737.94;1048462;28;20494;-82
2022/07/19 01:56:36;;;;;;;13.60;5.05;;;;;;;14.78;96.39;101733.56;1041086;28;20045;-83
2022/07/19 01:57:08;;;;;;;15.38;5.28;;;;;;;14.85;95.47;101744.25;1044120;28;20041;-83
2022/07/19 01:57:40;;;;;;;14.90;6.18;;;;;;;14.90;95.45;101739.03;1039390;28;20676;-83
2022/07/19 01:58:11;;;;;;;19.42;5.25;;;;;;;14.84;95.62;101737.25;1035665;28;20035;-83
2022/07/19 01:58:43;;;;;;;16.65;5.65;;;;;;;14.90;95.27;101736.34;1043302;28;20522;-83
2022/07/19 01:59:15;;;;;;;17.85;6.95;;;;;;;14.98;95.89;101732.53;1035827;28;20041;-83
2022/07/19 01:59:46;;;;;;;15.18;5.07;;;;;;;15.04;95.51;101735.13;1040064;28;20052;-83
2022/07/19 02:00:18;;;;;;;14.70;5.65;;;;;;;14.97;95.23;101745.13;1039626;28;20053;-83
2022/07/19 02:00:50;;;;;;;19.80;5.50;;;;;;;14.85;96.00;101741.56;1043871;28;20048;-83
2022/07/19 02:01:22;;;;;;;12.27;5.32;;;;;;;14.88;95.05;101735.75;1042569;28;20067;-83
2022/07/19 02:01:54;;;;;;;20.60;5.82;;;;;;;14.88;94.38;101738.44;1039135;28;20434;-82
2022/07/19 02:02:26;;;;;;;10.65;5.40;;;;;;;14.89;94.73;101736.56;1038377;28;20478;-83
2022/07/19 02:02:57;;;;;;;16.50;6.18;;;;;;;14.89;95.26;101737.38;1039460;28;20531;-83
2022/07/19 02:03:29;;;;;;;14.93;5.57;;;;;;;14.89;95.49;101737.38;1040244;28;20388;-82
2022/07/19 02:04:01;;;;;;;13.45;5.50;;;;;;;14.87;95.74;101739.47;1043507;28;20114;-83
2022/07/19 02:04:33;;;;;;;20.33;5.72;;;;;;;14.82;96.35;101731.28;1042066;28;20037;-82
2022/07/19 02:05:05;;;;;;;18.17;5.82;;;;;;;14.81;95.91;101729.63;1047567;28;20249;-83
2022/07/19 02:05:39;;;;;;;24.08;6.40;;;;;;;14.79;96.14;101745.09;1048516;28;20411;-83
2022/07/19 02:06:12;;;;;;;12.35;5.30;;;;;;;14.75;96.25;101735.88;1047643;28;20044;-82
2022/07/19 02:06:43;;;;;;;16.27;5.65;;;;;;;14.62;96.60;101736.84;1047537;28;20123;-83
2022/07/19 02:07:15;;;;;;;17.80;5.93;;;;;;;14.61;96.99;101735.19;1044228;28;20047;-83
2022/07/19 02:07:47;;;;;;;17.52;5.43;;;;;;;14.62;97.10;101733.34;1047612;28;20474;-83
2022/07/19 02:08:19;;;;;;;10.23;5.38;;;;;;;14.65;97.09;101735.56;1038897;28;20428;-83
2022/07/19 02:08:51;;;;;;;9.30;6.15;;;;;;;14.51;97.33;101735.69;1040501;28;20499;-83
2022/07/19 02:09:22;;;;;;;12.23;4.85;;;;;;;14.49;97.85;101727.03;1039172;28;20116;-83
2022/07/19 02:09:56;;;;;;;15.98;5.97;;;;;;;14.44;98.00;101729.56;1036135;28;20045;-83
2022/07/19 02:10:28;;;;;;;9.20;5.05;;;;;;;14.45;98.12;101730.38;1040006;28;20041;-82
2022/07/19 02:11:34;;;;;;;9.13;4.55;;;;;;;14.44;98.53;101728.75;1035822;28;20042;-83
2022/07/19 02:11:51;;;;;;;8.27;5.88;;;;;;;14.42;99.33;101728.94;1039428;28;20049;-83
2022/07/19 02:12:23;;;;;;;13.68;5.40;;;;;;;14.44;99.63;101729.56;1041784;28;20059;-83
2022/07/19 02:12:57;;;;;;;12.13;6.28;;;;;;;14.38;99.30;101733.09;1046695;28;20508;-83
2022/07/19 02:13:28;;;;;;;11.23;5.47;;;;;;;14.39;99.28;101726.69;1043547;28;20495;-83
2022/07/19 02:14:01;;;;;;;5.95;5.00;;;;;;;14.40;99.75;101728.34;1039627;28;20124;-83
2022/07/19 02:14:33;;;;;;;8.30;5.20;;;;;;;14.33;99.32;101727.56;1044040;28;20461;-83
2022/07/19 02:15:06;;;;;;;6.13;4.72;;;;;;;14.24;100.00;101728.88;1044787;28;20064;-83
2022/07/19 02:15:37;;;;;;;8.25;5.43;;;;;;;14.21;100.00;101730.13;1043689;28;20357;-83
2022/07/19 02:16:10;;;;;;;9.57;5.38;;;;;;;14.24;100.00;101728.88;1040169;28;20079;-83
2022/07/19 02:16:43;;;;;;;9.75;5.13;;;;;;;14.27;100.00;101730.31;1044094;28;20573;-83
2022/07/19 02:17:15;;;;;;;6.25;5.10;;;;;;;14.31;100.00;101723.47;1048883;28;20036;-83
2022/07/19 02:17:46;;;;;;;12.18;5.00;;;;;;;14.37;100.00;101723.41;1042367;28;20045;-82
2022/07/19 02:18:18;;;;;;;8.93;4.88;;;;;;;14.44;100.00;101723.38;1047378;28;20036;-83
2022/07/19 02:18:50;;;;;;;6.25;4.35;;;;;;;14.53;99.94;101722.09;1048570;28;20048;-83
2022/07/19 02:19:21;;;;;;;6.47;4.53;;;;;;;14.57;99.60;101725.13;1051760;28;20127;-82
2022/07/19 02:19:53;;;;;;;5.70;4.88;;;;;;;14.63;99.11;101721.56;1051555;28;20036;-83
2022/07/19 02:20:24;;;;;;;11.32;4.35;;;;;;;14.67;98.11;101720.06;1047730;28;20384;-82
2022/07/19 02:20:56;;;;;;;10.73;5.25;;;;;;;14.71;98.46;101721.25;1043582;28;20053;-83
2022/07/19 02:21:28;;;;;;;10.88;5.13;;;;;;;14.73;98.22;101716.50;1039630;28;20045;-83
2022/07/19 02:21:59;;;;;;;9.90;4.45;;;;;;;14.64;97.30;101717.84;1040099;28;20415;-83
2022/07/19 02:22:31;;;;;;;6.80;4.85;;;;;;;14.59;97.98;101720.38;1039825;28;20037;-83
2022/07/19 02:23:02;;;;;;;5.10;4.57;;;;;;;14.52;97.01;101715.06;1039664;28;20037;-83
2022/07/19 02:23:34;;;;;;;7.60;5.25;;;;;;;14.47;97.54;101713.03;1039929;28;20045;-82
2022/07/19 02:24:07;;;;;;;8.32;4.70;;;;;;;14.44;97.20;101718.84;1039585;28;20045;-83
2022/07/19 02:24:42;;;;;;;8.55;4.25;;;;;;;14.41;98.08;101719.25;1047627;28;20383;-83
2022/07/19 02:25:14;;;;;;;7.18;4.32;;;;;;;14.40;97.11;101716.78;1047333;28;20433;-83
2022/07/19 02:25:45;;;;;;;8.98;4.90;;;;;;;14.36;97.46;101729.81;1047821;28;20509;-83
2022/07/19 02:26:17;;;;;;;6.85;5.13;;;;;;;14.33;97.29;101718.72;1047437;28;20122;-83
2022/07/19 02:26:49;;;;;;;9.23;4.57;;;;;;;14.29;97.73;101720.19;1040072;28;20041;-83
2022/07/19 02:27:21;;;;;;;9.63;4.75;;;;;;;14.25;97.54;101716.31;1047780;28;20040;-83
2022/07/19 02:27:53;;;;;;;7.07;4.78;;;;;;;14.15;97.88;101719.47;1046344;28;20486;-83
2022/07/19 02:28:25;;;;;;;5.38;4.53;;;;;;;14.10;98.27;101716.63;1048166;28;20032;-83